Terminal Aerodrome Forecast
Issued by NWS Sioux Falls, SD

Home | Current Version | Previous Version | Graphics & Text | Print | Product List | Glossary On
Versions: 1 2 3 4 5 6 7 8 9 10 11 12 13 14 15 16 17
000
FTUS43 KFSD 220533
TAFFSD
TAF
KFSD 220533Z 2206/2306 20011KT P6SM BKN120
     FM221000 19006KT 3SM BR SCT003 BKN005
     FM221400 19006KT P6SM SCT005
     FM221900 17010KT P6SM SCT200=

USA.gov is the U.S. government's official web portal to all federal, state and local government web resources and services.